Time;durP1;ratioP1;P1;durP2;ratioP2;P2;SDS_P1;SDS_P2;PMS_P1;PMS_P2;Temp;Humidity;BMP_temperature;BMP_pressure;BME280_temperature;BME280_humidity;BME280_pressure;Samples;Min_cycle;Max_cycle;Signal;HPM_P1;HPM_P2
2021/04/22 00:00:13;;;;;;;13.77;11.73;;;5.90;95.60;;;;;;5053386;28;20032;-78
2021/04/22 00:02:40;;;;;;;15.38;11.68;;;5.90;95.60;;;;;;5053331;28;20021;-78
2021/04/22 00:05:11;;;;;;;13.68;11.52;;;5.90;95.50;;;;;;5053302;28;20103;-78
2021/04/22 00:07:37;;;;;;;16.60;12.00;;;6.00;95.50;;;;;;5053314;28;20028;-79
2021/04/22 00:10:08;;;;;;;17.35;11.73;;;6.10;95.40;;;;;;5054412;28;20104;-78
2021/04/22 00:12:34;;;;;;;14.65;11.32;;;6.10;95.20;;;;;;5054513;28;20071;-78
2021/04/22 00:14:59;;;;;;;14.77;10.43;;;6.00;95.40;;;;;;5069845;28;20025;-78
2021/04/22 00:17:25;;;;;;;13.63;10.88;;;6.10;95.30;;;;;;5054112;28;20418;-78
2021/04/22 00:19:51;;;;;;;16.63;11.85;;;6.10;95.40;;;;;;5053122;28;20029;-78
2021/04/22 00:22:17;;;;;;;14.48;11.48;;;6.20;95.40;;;;;;5053056;28;20025;-78
2021/04/22 00:24:42;;;;;;;14.27;11.50;;;6.20;95.30;;;;;;5054584;28;20367;-78
2021/04/22 00:27:08;;;;;;;14.02;11.02;;;6.20;95.20;;;;;;5052675;28;20065;-78
2021/04/22 00:29:34;;;;;;;14.85;11.93;;;6.20;95.20;;;;;;5052368;28;20053;-78
2021/04/22 00:31:59;;;;;;;15.63;11.07;;;6.20;95.30;;;;;;5052425;28;20025;-78
2021/04/22 00:34:25;;;;;;;14.75;11.30;;;6.20;95.20;;;;;;5052719;28;20021;-78
2021/04/22 00:36:51;;;;;;;15.45;12.40;;;6.10;95.20;;;;;;5053673;28;20455;-78
2021/04/22 00:39:16;;;;;;;16.58;11.98;;;6.10;95.10;;;;;;5053567;28;20029;-77
2021/04/22 00:41:42;;;;;;;18.65;12.75;;;6.10;95.20;;;;;;5053931;28;20017;-78
2021/04/22 00:44:09;;;;;;;16.55;12.30;;;6.10;95.30;;;;;;5052305;28;20025;-78
2021/04/22 00:46:36;;;;;;;18.25;13.80;;;6.10;95.30;;;;;;5052230;28;20048;-78
2021/04/22 00:49:02;;;;;;;19.73;13.05;;;6.00;95.40;;;;;;5053352;28;20053;-78
2021/04/22 00:51:27;;;;;;;19.08;13.43;;;6.00;95.30;;;;;;5052669;28;20506;-77
2021/04/22 00:53:54;;;;;;;19.23;13.10;;;6.00;95.30;;;;;;5052377;28;20364;-77
2021/04/22 00:56:19;;;;;;;17.05;11.93;;;6.00;95.30;;;;;;5052728;28;20103;-78
2021/04/22 00:58:45;;;;;;;18.75;13.40;;;6.00;95.30;;;;;;5068664;28;20594;-79
2021/04/22 01:01:11;;;;;;;16.38;12.57;;;6.00;95.40;;;;;;5053177;28;20383;-78
2021/04/22 01:03:37;;;;;;;18.67;11.93;;;6.00;95.40;;;;;;5053245;28;20021;-78
2021/04/22 01:06:04;;;;;;;17.00;12.60;;;6.00;95.20;;;;;;5052041;28;20540;-78
2021/04/22 01:08:30;;;;;;;16.42;13.00;;;6.00;95.20;;;;;;5051816;28;20364;-78
2021/04/22 01:10:56;;;;;;;17.15;12.40;;;6.00;95.30;;;;;;5051772;28;20667;-78
2021/04/22 01:13:23;;;;;;;16.75;12.27;;;6.00;95.20;;;;;;5051637;28;20021;-78
2021/04/22 01:15:49;;;;;;;16.35;11.88;;;6.00;95.20;;;;;;5051630;28;20074;-78
2021/04/22 01:18:15;;;;;;;20.65;12.85;;;6.10;95.10;;;;;;5052858;28;20037;-78
2021/04/22 01:20:44;;;;;;;13.50;10.98;;;6.10;95.00;;;;;;5051871;28;20029;-78
2021/04/22 01:23:12;;;;;;;18.13;12.93;;;6.20;94.90;;;;;;5053116;28;20071;-78
2021/04/22 01:25:46;;;;;;;17.75;12.98;;;6.20;94.80;;;;;;5052977;28;20025;-78
2021/04/22 01:28:14;;;;;;;18.67;12.75;;;6.10;94.80;;;;;;5051713;28;20032;-78
2021/04/22 01:30:44;;;;;;;21.13;13.05;;;6.10;94.70;;;;;;5068786;28;20029;-78
2021/04/22 01:33:12;;;;;;;18.25;13.27;;;6.10;94.80;;;;;;5052227;28;20159;-78
2021/04/22 01:35:42;;;;;;;18.58;13.20;;;6.10;94.80;;;;;;5052297;28;20033;-78
2021/04/22 01:38:10;;;;;;;20.27;14.60;;;6.10;94.80;;;;;;5052008;28;20368;-78
2021/04/22 01:40:37;;;;;;;17.40;12.75;;;6.10;94.80;;;;;;5054903;28;20732;-78
2021/04/22 01:43:04;;;;;;;19.08;13.35;;;6.20;94.80;;;;;;5056034;28;20141;-78
2021/04/22 01:45:30;;;;;;;15.50;11.93;;;6.20;94.70;;;;;;5057303;28;20537;-78
2021/04/22 01:47:56;;;;;;;18.10;13.10;;;6.20;94.60;;;;;;5072568;28;20064;-78
2021/04/22 01:50:25;;;;;;;19.67;13.20;;;6.30;94.50;;;;;;5055662;28;20465;-78
2021/04/22 01:52:52;;;;;;;20.65;14.43;;;6.20;94.40;;;;;;5055620;28;20033;-78
2021/04/22 01:55:28;;;;;;;18.88;13.50;;;6.30;94.50;;;;;;5056101;28;20033;-78
2021/04/22 01:57:54;;;;;;;17.63;12.82;;;6.20;94.40;;;;;;5055431;28;20075;-78
2021/04/22 02:00:31;;;;;;;17.33;12.18;;;6.30;94.40;;;;;;5056953;28;20029;-78
2021/04/22 02:02:57;;;;;;;18.33;13.02;;;6.30;94.50;;;;;;5055649;28;20021;-78
2021/04/22 02:05:23;;;;;;;19.48;14.38;;;6.20;94.50;;;;;;5055659;28;20028;-78
2021/04/22 02:07:50;;;;;;;25.73;15.57;;;6.20;94.60;;;;;;5055586;28;20151;-78
2021/04/22 02:10:16;;;;;;;20.67;13.70;;;6.10;94.70;;;;;;5055574;28;20094;-78
2021/04/22 02:12:42;;;;;;;16.80;12.55;;;6.10;94.60;;;;;;5055056;28;20021;-78
2021/04/22 02:15:11;;;;;;;16.00;11.10;;;6.10;94.60;;;;;;5055465;28;20032;-78
2021/04/22 02:17:38;;;;;;;18.80;12.55;;;6.20;94.40;;;;;;5056332;28;20049;-78
2021/04/22 02:20:10;;;;;;;18.63;12.15;;;6.10;94.40;;;;;;5056642;28;20491;-78
2021/04/22 02:22:36;;;;;;;16.55;12.43;;;6.20;94.50;;;;;;5055270;28;20056;-78
2021/04/22 02:25:05;;;;;;;16.67;12.00;;;6.20;94.40;;;;;;5055278;28;20472;-78
2021/04/22 02:27:31;;;;;;;19.33;13.65;;;6.20;94.30;;;;;;5055152;28;20021;-78
2021/04/22 02:29:57;;;;;;;18.33;13.55;;;6.20;94.40;;;;;;5054389;28;20025;-78
2021/04/22 02:32:23;;;;;;;17.33;13.10;;;6.20;94.70;;;;;;5056016;28;20032;-78
2021/04/22 02:34:49;;;;;;;17.75;13.95;;;6.20;94.50;;;;;;5054124;28;20467;-79
2021/04/22 02:37:16;;;;;;;27.50;15.38;;;6.20;94.50;;;;;;5053326;28;20368;-78
2021/04/22 02:39:41;;;;;;;21.83;15.20;;;6.20;94.60;;;;;;5054435;28;20443;-78
2021/04/22 02:42:07;;;;;;;21.90;14.55;;;6.10;94.50;;;;;;5054481;28;20045;-78
2021/04/22 02:44:33;;;;;;;22.10;14.95;;;6.20;94.60;;;;;;5053467;28;20017;-78
2021/04/22 02:47:00;;;;;;;21.73;15.07;;;6.20;94.50;;;;;;5053203;28;20039;-78
2021/04/22 02:49:25;;;;;;;20.00;13.32;;;6.20;94.50;;;;;;5055421;28;20426;-78
2021/04/22 02:51:51;;;;;;;20.25;14.15;;;6.30;94.40;;;;;;5053776;28;20069;-79
2021/04/22 02:54:17;;;;;;;19.08;14.25;;;6.30;94.30;;;;;;5055753;28;20035;-79
2021/04/22 02:56:42;;;;;;;21.85;14.55;;;6.40;94.20;;;;;;5055268;28;20364;-79
2021/04/22 02:59:08;;;;;;;22.15;16.17;;;6.40;94.10;;;;;;5053849;28;20083;-78
2021/04/22 03:01:34;;;;;;;21.90;15.88;;;6.40;94.40;;;;;;5053534;28;20107;-79
2021/04/22 03:04:01;;;;;;;18.58;14.27;;;6.30;94.30;;;;;;5055088;28;20092;-78
2021/04/22 03:06:27;;;;;;;22.65;15.98;;;6.40;94.30;;;;;;5053699;28;20032;-77
2021/04/22 03:08:52;;;;;;;20.25;14.25;;;6.40;94.50;;;;;;5070593;28;20035;-77
2021/04/22 03:11:18;;;;;;;24.15;15.82;;;6.40;94.40;;;;;;5053520;28;20033;-77
2021/04/22 03:13:44;;;;;;;23.50;15.20;;;6.40;94.50;;;;;;5053450;28;20021;-77
2021/04/22 03:16:10;;;;;;;19.85;14.43;;;6.40;94.50;;;;;;5053384;28;20471;-77
2021/04/22 03:18:35;;;;;;;16.77;12.70;;;6.40;94.50;;;;;;5054628;28;20445;-77
2021/04/22 03:21:01;;;;;;;17.67;12.32;;;6.50;94.40;;;;;;5053548;28;20029;-77
2021/04/22 03:23:27;;;;;;;16.98;12.98;;;6.60;94.30;;;;;;5053449;28;20027;-78
2021/04/22 03:25:52;;;;;;;18.45;13.75;;;6.60;94.50;;;;;;5053959;28;20489;-78
2021/04/22 03:28:18;;;;;;;19.05;13.75;;;6.70;94.30;;;;;;5054773;28;20100;-77
2021/04/22 03:30:44;;;;;;;20.45;12.93;;;6.70;94.20;;;;;;5053814;28;20029;-77
2021/04/22 03:33:10;;;;;;;20.73;14.05;;;6.80;94.20;;;;;;5053822;28;20047;-78
2021/04/22 03:35:36;;;;;;;19.02;13.98;;;6.80;94.10;;;;;;5054784;28;20052;-77
2021/04/22 03:38:01;;;;;;;21.35;14.45;;;6.90;94.10;;;;;;5053776;28;20025;-77
2021/04/22 03:40:29;;;;;;;16.40;11.98;;;6.90;94.20;;;;;;5055001;28;20075;-77
2021/04/22 03:42:55;;;;;;;18.20;12.35;;;6.90;94.00;;;;;;5054775;28;20021;-77
2021/04/22 03:45:23;;;;;;;18.40;12.20;;;7.00;93.90;;;;;;5053555;28;20131;-77
2021/04/22 03:47:49;;;;;;;24.02;13.43;;;7.10;93.70;;;;;;5053600;28;20032;-77
2021/04/22 03:50:17;;;;;;;23.20;14.50;;;7.10;93.80;;;;;;5053501;28;20024;-77
2021/04/22 03:52:44;;;;;;;18.25;13.35;;;7.20;93.70;;;;;;5053823;28;20534;-77
2021/04/22 03:55:12;;;;;;;20.77;14.20;;;7.30;93.50;;;;;;5052965;28;20036;-77
2021/04/22 03:57:37;;;;;;;18.75;13.02;;;7.30;93.50;;;;;;5054521;28;20465;-77
2021/04/22 04:00:09;;;;;;;16.70;12.02;;;7.40;93.40;;;;;;5053198;28;20083;-77
2021/04/22 04:02:35;;;;;;;18.67;12.55;;;7.50;93.30;;;;;;5052441;28;20025;-77
2021/04/22 04:05:01;;;;;;;20.08;13.20;;;7.50;93.30;;;;;;5052873;28;20028;-77
2021/04/22 04:07:26;;;;;;;18.02;12.50;;;7.50;93.30;;;;;;5053136;28;20493;-77
2021/04/22 04:09:52;;;;;;;21.30;13.15;;;7.60;93.40;;;;;;5053190;28;20498;-77
2021/04/22 04:12:18;;;;;;;18.35;13.40;;;7.60;93.60;;;;;;5054383;28;20429;-76
2021/04/22 04:14:44;;;;;;;15.10;11.60;;;7.60;93.70;;;;;;5054269;28;20017;-76
2021/04/22 04:17:10;;;;;;;16.50;12.18;;;7.70;93.70;;;;;;5052918;28;20533;-76
2021/04/22 04:19:35;;;;;;;13.88;10.38;;;7.80;93.70;;;;;;5054290;28;20201;-78
2021/04/22 04:22:01;;;;;;;18.27;12.98;;;7.90;93.50;;;;;;5053057;28;20032;-77
2021/04/22 04:24:27;;;;;;;16.70;11.50;;;8.00;93.40;;;;;;5052810;28;20025;-77
2021/04/22 04:26:52;;;;;;;15.93;11.82;;;8.20;93.30;;;;;;5052760;28;20020;-76
2021/04/22 04:29:19;;;;;;;18.05;11.20;;;8.20;93.30;;;;;;5053532;28;20025;-77
2021/04/22 04:31:45;;;;;;;14.88;11.77;;;8.30;93.10;;;;;;5053834;28;20028;-74
2021/04/22 04:34:11;;;;;;;20.90;14.43;;;8.50;93.00;;;;;;5052347;28;20035;-74
2021/04/22 04:36:37;;;;;;;33.00;19.77;;;8.50;92.80;;;;;;5052547;28;20028;-74
2021/04/22 04:39:03;;;;;;;25.27;15.98;;;8.60;92.80;;;;;;5051855;28;20021;-74
2021/04/22 04:41:29;;;;;;;23.50;14.57;;;8.60;92.80;;;;;;5052329;28;20021;-74
2021/04/22 04:43:55;;;;;;;16.30;12.32;;;8.70;92.70;;;;;;5052826;28;20471;-74
2021/04/22 04:46:21;;;;;;;15.82;12.52;;;8.70;92.70;;;;;;5052159;28;20663;-75
2021/04/22 04:48:47;;;;;;;14.52;11.13;;;8.80;92.80;;;;;;5052585;28;20041;-76
2021/04/22 04:51:13;;;;;;;16.65;11.48;;;8.80;92.80;;;;;;5052455;28;20094;-75
2021/04/22 04:53:39;;;;;;;15.10;11.02;;;8.90;92.80;;;;;;5052515;28;20485;-76
2021/04/22 04:56:05;;;;;;;14.75;10.27;;;8.90;92.80;;;;;;5052431;28;20025;-76
2021/04/22 04:58:31;;;;;;;17.55;12.65;;;9.00;92.70;;;;;;5052238;28;20087;-74
2021/04/22 05:00:57;;;;;;;14.85;11.57;;;9.00;92.60;;;;;;5052226;28;20413;-74
2021/04/22 05:03:22;;;;;;;17.60;12.48;;;9.10;92.50;;;;;;5053566;28;20025;-75
2021/04/22 05:05:48;;;;;;;19.40;12.63;;;9.20;92.30;;;;;;5051801;28;20056;-75
2021/04/22 05:08:14;;;;;;;18.40;12.70;;;9.20;92.30;;;;;;5051987;28;20020;-76
2021/04/22 05:10:40;;;;;;;15.98;11.90;;;9.30;92.30;;;;;;5052910;28;20032;-76
2021/04/22 05:13:05;;;;;;;15.73;11.77;;;9.30;92.40;;;;;;5051287;28;20395;-76
2021/04/22 05:15:31;;;;;;;17.73;12.13;;;9.40;92.30;;;;;;5051489;28;20063;-75
2021/04/22 05:17:57;;;;;;;17.58;13.00;;;9.50;92.30;;;;;;5052547;28;20486;-75
2021/04/22 05:20:24;;;;;;;16.05;12.00;;;9.50;92.20;;;;;;5051278;28;20032;-75
2021/04/22 05:22:49;;;;;;;15.93;12.18;;;9.70;92.00;;;;;;5051488;28;20074;-76
2021/04/22 05:25:15;;;;;;;16.30;12.77;;;9.70;91.70;;;;;;5052895;28;20429;-76
2021/04/22 05:27:41;;;;;;;15.30;12.07;;;9.80;91.90;;;;;;5051337;28;20119;-76
2021/04/22 05:30:08;;;;;;;17.17;12.57;;;9.80;91.70;;;;;;5050888;28;20483;-76
2021/04/22 05:32:33;;;;;;;19.23;11.65;;;9.90;91.50;;;;;;5050395;28;20503;-76
2021/04/22 05:34:59;;;;;;;14.55;11.32;;;9.90;91.60;;;;;;5052046;28;20032;-76
2021/04/22 05:37:25;;;;;;;15.68;12.30;;;10.00;91.50;;;;;;5050565;28;20040;-76
2021/04/22 05:39:50;;;;;;;15.98;11.43;;;10.10;91.40;;;;;;5050130;28;20387;-76
2021/04/22 05:42:16;;;;;;;17.20;11.70;;;10.20;91.40;;;;;;5050477;28;20025;-75
2021/04/22 05:44:43;;;;;;;17.83;11.35;;;10.20;91.50;;;;;;5050292;28;20021;-75
2021/04/22 05:47:09;;;;;;;21.23;12.07;;;10.30;91.70;;;;;;5050514;28;20036;-75
2021/04/22 05:49:34;;;;;;;17.33;12.30;;;10.40;91.50;;;;;;5050522;28;20797;-76
2021/04/22 05:52:00;;;;;;;14.82;11.50;;;10.50;91.10;;;;;;5050189;28;20029;-76
2021/04/22 05:54:26;;;;;;;15.60;11.90;;;10.60;91.20;;;;;;5049980;28;20364;-76
2021/04/22 05:56:52;;;;;;;18.52;13.10;;;10.60;91.10;;;;;;5051823;28;20437;-75
2021/04/22 05:59:18;;;;;;;18.70;12.80;;;10.70;91.10;;;;;;5051337;28;20413;-75
2021/04/22 06:01:43;;;;;;;15.55;11.55;;;10.80;91.40;;;;;;5050354;28;20017;-75
2021/04/22 06:04:09;;;;;;;16.42;12.07;;;10.90;91.30;;;;;;5050288;28;20029;-75
2021/04/22 06:06:35;;;;;;;16.98;12.15;;;11.00;91.10;;;;;;5049951;28;20017;-75
2021/04/22 06:09:01;;;;;;;15.90;12.18;;;11.10;90.90;;;;;;5051155;28;20033;-74
2021/04/22 06:11:27;;;;;;;17.38;12.70;;;11.20;91.00;;;;;;5050097;28;20082;-74
2021/04/22 06:13:52;;;;;;;28.08;19.40;;;11.30;90.90;;;;;;5049765;28;20029;-74
2021/04/22 06:16:18;;;;;;;22.55;15.43;;;11.40;90.80;;;;;;5050448;28;20043;-74
2021/04/22 06:18:44;;;;;;;23.63;16.85;;;11.50;90.60;;;;;;5050211;28;20103;-74
2021/04/22 06:21:11;;;;;;;22.45;17.25;;;11.60;90.70;;;;;;5050068;28;20021;-74
2021/04/22 06:23:37;;;;;;;16.00;12.95;;;11.80;90.80;;;;;;5051259;28;20017;-75
2021/04/22 06:26:03;;;;;;;21.42;15.82;;;11.90;90.40;;;;;;5051891;28;20067;-75
2021/04/22 06:28:29;;;;;;;17.85;14.25;;;12.00;90.30;;;;;;5054231;28;20474;-75
2021/04/22 06:30:54;;;;;;;19.65;15.10;;;12.00;90.30;;;;;;5054675;28;20021;-74
2021/04/22 06:33:20;;;;;;;19.38;14.65;;;12.10;90.20;;;;;;5055782;28;20027;-74
2021/04/22 06:35:46;;;;;;;18.23;15.05;;;12.30;90.00;;;;;;5055745;28;20112;-75
2021/04/22 06:38:12;;;;;;;17.65;13.15;;;12.40;90.20;;;;;;5054332;28;20440;-75
2021/04/22 06:40:38;;;;;;;20.63;16.25;;;12.60;89.40;;;;;;5054169;28;20025;-75
2021/04/22 06:43:04;;;;;;;21.10;15.20;;;12.70;90.00;;;;;;5055445;28;20040;-75
2021/04/22 06:45:30;;;;;;;17.27;12.77;;;12.80;89.60;;;;;;5054186;28;20025;-75
2021/04/22 06:47:55;;;;;;;16.98;13.63;;;12.80;89.20;;;;;;5054307;28;20109;-74
2021/04/22 06:50:23;;;;;;;16.10;12.65;;;12.90;89.10;;;;;;5055483;28;20698;-75
2021/04/22 06:52:50;;;;;;;15.73;12.20;;;13.10;88.60;;;;;;5054222;28;20025;-74
2021/04/22 06:55:19;;;;;;;17.45;12.88;;;13.10;87.80;;;;;;5053961;28;20368;-75
2021/04/22 06:57:45;;;;;;;16.20;11.87;;;13.20;87.20;;;;;;5053952;28;20498;-75
2021/04/22 07:00:14;;;;;;;12.48;10.82;;;13.30;86.80;;;;;;5053898;28;20025;-75
2021/04/22 07:02:40;;;;;;;13.10;10.07;;;13.40;86.40;;;;;;5053742;28;20048;-75
2021/04/22 07:05:09;;;;;;;12.60;10.40;;;13.60;85.40;;;;;;5054868;28;20113;-75
2021/04/22 07:07:36;;;;;;;12.85;10.32;;;13.70;84.60;;;;;;5053879;28;20094;-75
2021/04/22 07:10:02;;;;;;;13.20;10.40;;;13.80;84.90;;;;;;5053772;28;20021;-75
2021/04/22 07:12:28;;;;;;;12.45;10.35;;;13.90;84.40;;;;;;5053743;28;20025;-75
2021/04/22 07:14:54;;;;;;;12.63;10.13;;;14.00;83.90;;;;;;5053916;28;20030;-75
2021/04/22 07:17:20;;;;;;;16.15;11.57;;;14.10;83.10;;;;;;5054439;28;20044;-75
2021/04/22 07:19:46;;;;;;;15.68;12.23;;;14.20;82.90;;;;;;5054623;28;20037;-75
2021/04/22 07:22:12;;;;;;;16.23;12.30;;;14.30;83.00;;;;;;5053367;28;20029;-75
2021/04/22 07:24:39;;;;;;;11.95;9.45;;;14.60;81.90;;;;;;5053544;28;20452;-75
2021/04/22 07:27:06;;;;;;;14.15;9.82;;;14.70;81.90;;;;;;5053508;28;20028;-76
2021/04/22 07:29:32;;;;;;;12.02;9.02;;;14.80;81.40;;;;;;5052660;28;20029;-75
2021/04/22 07:31:58;;;;;;;10.32;8.18;;;14.90;80.50;;;;;;5053755;28;20021;-74
2021/04/22 07:34:24;;;;;;;11.18;8.30;;;15.00;79.80;;;;;;5052802;28;20074;-75
2021/04/22 07:36:50;;;;;;;11.05;8.43;;;15.20;78.90;;;;;;5053737;28;20461;-74
2021/04/22 07:39:15;;;;;;;13.48;8.82;;;15.30;78.10;;;;;;5053367;28;20044;-74
2021/04/22 07:41:41;;;;;;;11.77;8.13;;;15.40;78.30;;;;;;5052193;28;20032;-74
2021/04/22 07:44:07;;;;;;;11.10;7.88;;;15.40;78.90;;;;;;5052059;28;20387;-74
2021/04/22 07:46:33;;;;;;;9.63;7.22;;;15.50;78.60;;;;;;5051714;28;20025;-74
2021/04/22 07:48:59;;;;;;;11.35;7.28;;;15.60;77.00;;;;;;5053293;28;20025;-74
2021/04/22 07:51:24;;;;;;;9.88;6.90;;;15.70;73.70;;;;;;5053276;28;20133;-74
2021/04/22 07:53:50;;;;;;;10.43;7.88;;;15.90;73.80;;;;;;5051647;28;20064;-74
2021/04/22 07:56:16;;;;;;;9.20;6.28;;;15.90;74.50;;;;;;5051740;28;20498;-74
2021/04/22 07:58:42;;;;;;;11.70;7.40;;;16.00;75.40;;;;;;5051301;28;20501;-74
2021/04/22 08:01:07;;;;;;;10.18;6.47;;;16.10;74.90;;;;;;5051771;28;20636;-74
2021/04/22 08:03:33;;;;;;;6.75;5.80;;;16.20;72.90;;;;;;5051619;28;20067;-73
2021/04/22 08:05:59;;;;;;;8.40;6.18;;;16.30;74.40;;;;;;5052979;28;20044;-74
2021/04/22 08:08:26;;;;;;;8.55;6.05;;;16.40;71.70;;;;;;5051575;28;20036;-73
2021/04/22 08:10:53;;;;;;;6.65;5.88;;;16.50;72.20;;;;;;5051343;28;20033;-74
2021/04/22 08:13:20;;;;;;;6.70;5.55;;;16.50;72.80;;;;;;5051221;28;20025;-74
2021/04/22 08:15:48;;;;;;;9.60;6.10;;;16.60;72.30;;;;;;5052621;28;20021;-72
2021/04/22 08:18:14;;;;;;;8.85;6.00;;;16.80;68.10;;;;;;5052474;28;20495;-74
2021/04/22 08:20:40;;;;;;;9.57;5.75;;;16.80;67.60;;;;;;5052113;28;20025;-73
2021/04/22 08:23:07;;;;;;;7.72;6.18;;;16.80;67.80;;;;;;5052445;28;20031;-74
2021/04/22 08:25:40;;;;;;;8.18;5.95;;;16.90;67.30;;;;;;5052741;28;20024;-74
2021/04/22 08:28:08;;;;;;;7.47;6.22;;;17.00;68.40;;;;;;5052548;28;20057;-73
2021/04/22 08:30:53;;;;;;;6.82;5.50;;;17.10;65.70;;;;;;5053588;28;20024;-74
2021/04/22 08:33:21;;;;;;;6.38;4.60;;;17.20;64.70;;;;;;5053115;28;20025;-74
2021/04/22 08:35:48;;;;;;;6.80;5.05;;;17.30;63.90;;;;;;5053133;28;20035;-73
2021/04/22 08:38:14;;;;;;;8.00;5.57;;;17.40;62.70;;;;;;5052159;28;20033;-75
2021/04/22 08:40:42;;;;;;;8.23;4.80;;;17.30;61.50;;;;;;5052057;28;20115;-74
2021/04/22 08:43:09;;;;;;;6.53;5.47;;;17.40;62.00;;;;;;5053396;28;20120;-74
2021/04/22 08:45:35;;;;;;;9.25;5.32;;;17.40;61.60;;;;;;5052210;28;20463;-73
2021/04/22 08:48:01;;;;;;;8.50;5.40;;;17.60;62.60;;;;;;5053150;28;20108;-73
2021/04/22 08:50:32;;;;;;;5.10;4.60;;;17.80;62.10;;;;;;5051603;28;20029;-73
2021/04/22 08:52:59;;;;;;;;;;;17.90;62.80;;;;;;5052189;28;20036;-74
2021/04/22 08:55:29;;;;;;;8.93;5.25;;;18.10;62.40;;;;;;5052940;28;20000;-73
2021/04/22 08:57:58;;;;;;;5.70;4.93;;;18.20;60.50;;;;;;5051869;28;20025;-73
2021/04/22 09:00:26;;;;;;;6.70;5.07;;;18.30;58.60;;;;;;5051494;28;20033;-73
2021/04/22 09:02:53;;;;;;;8.70;5.20;;;18.20;60.10;;;;;;5052874;28;20090;-74
2021/04/22 09:05:19;;;;;;;5.95;4.80;;;18.30;58.20;;;;;;5050891;28;20108;-73
2021/04/22 09:07:45;;;;;;;6.70;5.50;;;18.30;56.90;;;;;;5052548;28;20020;-73
2021/04/22 09:10:14;;;;;;;6.13;4.82;;;18.10;58.30;;;;;;5051333;28;20486;-74
2021/04/22 09:12:40;;;;;;;4.80;4.40;;;18.10;57.40;;;;;;5051845;28;20104;-74
2021/04/22 09:15:08;;;;;;;7.93;5.53;;;18.00;57.30;;;;;;5051609;28;20116;-74
2021/04/22 09:17:34;;;;;;;5.38;4.80;;;17.90;55.90;;;;;;5051354;28;20821;-74
2021/04/22 09:19:59;;;;;;;5.70;4.50;;;17.90;56.00;;;;;;5051452;28;20025;-73
2021/04/22 09:22:42;;;;;;;5.75;4.40;;;17.90;56.50;;;;;;5051234;28;20123;-75
2021/04/22 09:25:16;;;;;;;9.52;5.68;;;18.00;56.00;;;;;;5051366;28;20021;-73
2021/04/22 09:27:43;;;;;;;5.80;4.97;;;18.00;56.30;;;;;;5052565;28;20051;-74
2021/04/22 09:30:09;;;;;;;6.60;4.60;;;18.10;55.10;;;;;;5049816;28;20029;-74
2021/04/22 09:32:36;;;;;;;5.95;4.60;;;18.20;54.60;;;;;;5050148;28;20715;-74
2021/04/22 09:35:13;;;;;;;4.72;4.10;;;18.20;54.00;;;;;;5050030;28;20032;-73
2021/04/22 09:37:50;;;;;;;6.10;4.78;;;18.20;54.10;;;;;;5051466;28;20027;-74
2021/04/22 09:40:24;;;;;;;7.30;5.00;;;18.20;53.30;;;;;;5051736;28;20021;-75
2021/04/22 09:42:51;;;;;;;32.75;13.32;;;18.20;53.40;;;;;;5050369;28;20397;-74
2021/04/22 09:45:21;;;;;;;16.08;8.70;;;18.20;53.60;;;;;;5050112;28;20401;-74
2021/04/22 09:47:47;;;;;;;6.57;5.33;;;18.10;54.30;;;;;;5050237;28;20028;-74
2021/04/22 09:50:16;;;;;;;7.97;5.38;;;18.00;53.70;;;;;;5050295;28;20170;-74
2021/04/22 09:52:45;;;;;;;7.57;5.60;;;18.00;54.60;;;;;;5050932;28;20096;-74
2021/04/22 09:55:19;;;;;;;7.13;4.70;;;17.90;55.80;;;;;;5050059;28;20578;-74
2021/04/22 09:57:48;;;;;;;5.13;4.63;;;17.80;58.50;;;;;;5049938;28;20025;-74
2021/04/22 10:00:23;;;;;;;5.45;4.88;;;17.70;60.40;;;;;;5051949;28;20075;-74
2021/04/22 10:02:57;;;;;;;7.90;5.95;;;17.70;60.10;;;;;;5054643;28;20013;-74
2021/04/22 10:05:29;;;;;;;6.45;4.80;;;17.60;61.70;;;;;;5053572;28;20374;-74
2021/04/22 10:08:09;;;;;;;5.07;4.57;;;17.70;59.60;;;;;;5054679;28;20032;-74
2021/04/22 10:10:39;;;;;;;;;;;17.70;60.40;;;;;;5055426;28;20072;-73
2021/04/22 10:13:12;;;;;;;5.35;4.60;;;17.80;57.40;;;;;;5053475;28;20370;-74
2021/04/22 10:15:49;;;;;;;7.70;5.15;;;18.00;59.20;;;;;;5053358;28;20063;-73
2021/04/22 10:18:15;;;;;;;5.50;5.00;;;18.20;59.60;;;;;;5054201;28;20052;-74
2021/04/22 10:20:41;;;;;;;6.25;4.22;;;18.50;57.50;;;;;;5053327;28;20032;-75
2021/04/22 10:23:08;;;;;;;5.22;4.60;;;18.80;56.10;;;;;;5054393;28;20387;-74
2021/04/22 10:25:41;;;;;;;9.23;5.40;;;19.00;55.20;;;;;;5053181;28;20025;-74
2021/04/22 10:28:15;;;;;;;6.88;5.38;;;19.10;55.00;;;;;;5053318;28;20455;-74
2021/04/22 10:30:45;;;;;;;7.13;4.65;;;19.30;55.10;;;;;;5054149;28;20029;-74
2021/04/22 10:33:11;;;;;;;5.63;4.18;;;19.70;54.80;;;;;;5055403;28;20029;-75
2021/04/22 10:35:40;;;;;;;5.72;4.40;;;19.90;52.70;;;;;;5054282;28;20061;-73
2021/04/22 10:38:06;;;;;;;5.15;4.65;;;20.10;50.40;;;;;;5054553;28;20031;-74
2021/04/22 10:40:35;;;;;;;6.38;4.40;;;20.10;50.00;;;;;;5054289;28;20033;-74
2021/04/22 10:43:03;;;;;;;5.60;4.50;;;20.10;51.00;;;;;;5054273;28;20025;-74
2021/04/22 10:45:31;;;;;;;6.32;4.47;;;20.00;49.60;;;;;;5054257;28;20045;-74
2021/04/22 10:47:57;;;;;;;6.93;4.95;;;20.00;50.70;;;;;;5054049;28;20056;-74
2021/04/22 10:50:29;;;;;;;7.05;4.47;;;20.00;48.70;;;;;;5053859;28;20387;-73
2021/04/22 10:52:57;;;;;;;7.80;4.30;;;19.90;49.30;;;;;;5054203;28;20033;-75
2021/04/22 10:55:26;;;;;;;5.53;4.40;;;19.70;49.90;;;;;;5054091;28;20483;-75
2021/04/22 10:57:54;;;;;;;4.63;4.10;;;19.80;49.60;;;;;;5054914;28;20057;-74
2021/04/22 11:00:23;;;;;;;3.78;3.47;;;19.80;49.90;;;;;;5053783;28;20250;-73
2021/04/22 11:02:55;;;;;;;4.80;4.30;;;20.10;49.70;;;;;;5053704;28;20065;-73
2021/04/22 11:05:31;;;;;;;4.20;3.80;;;20.20;49.60;;;;;;5053707;28;20021;-75
2021/04/22 11:07:59;;;;;;;4.20;3.80;;;20.40;48.90;;;;;;5054911;28;20124;-74
2021/04/22 11:10:35;;;;;;;4.35;3.95;;;20.50;48.90;;;;;;5053531;28;20078;-74
2021/04/22 11:13:14;;;;;;;5.55;4.35;;;20.70;47.20;;;;;;5053430;28;20021;-74
2021/04/22 11:16:02;;;;;;;7.47;4.25;;;20.60;46.40;;;;;;5053591;28;20032;-73
2021/04/22 11:18:41;;;;;;;4.90;4.38;;;20.40;47.10;;;;;;5052974;28;20045;-74
2021/04/22 11:21:29;;;;;;;5.97;5.20;;;20.20;47.80;;;;;;5053311;28;20059;-75
2021/04/22 11:23:58;;;;;;;8.27;5.35;;;20.30;49.80;;;;;;5053131;28;20021;-76
2021/04/22 11:26:34;;;;;;;5.75;5.00;;;20.40;50.40;;;;;;5054325;28;20028;-75
2021/04/22 11:29:13;;;;;;;5.20;4.40;;;20.60;49.50;;;;;;5051969;28;20033;-75
2021/04/22 11:31:51;;;;;;;4.85;4.00;;;20.60;47.00;;;;;;5051602;28;20056;-75
2021/04/22 11:34:18;;;;;;;4.80;3.90;;;20.40;48.00;;;;;;5051767;28;20027;-76
2021/04/22 11:36:52;;;;;;;5.60;4.60;;;20.30;47.70;;;;;;5051648;28;20025;-74
2021/04/22 11:39:30;;;;;;;4.82;4.35;;;20.10;48.20;;;;;;5051948;28;20750;-76
2021/04/22 11:41:59;;;;;;;5.90;5.00;;;20.00;48.00;;;;;;5052577;28;20075;-74
2021/04/22 11:44:42;;;;;;;5.78;4.88;;;19.90;49.30;;;;;;5051575;28;20025;-76
2021/04/22 11:47:18;;;;;;;7.55;5.00;;;20.20;48.60;;;;;;5051822;28;20112;-75
2021/04/22 11:49:45;;;;;;;6.95;4.72;;;20.30;48.60;;;;;;5051985;28;20036;-75
2021/04/22 11:52:16;;;;;;;3.90;3.50;;;20.50;48.50;;;;;;5051880;28;20174;-75
2021/04/22 11:54:42;;;;;;;6.00;3.50;;;20.80;45.30;;;;;;5052151;28;20143;-75
2021/04/22 11:57:10;;;;;;;7.70;4.03;;;20.80;45.50;;;;;;5053145;28;20581;-76
2021/04/22 11:59:37;;;;;;;5.15;4.28;;;20.80;45.70;;;;;;5052319;28;20066;-76
2021/04/22 12:02:09;;;;;;;4.30;3.90;;;20.50;45.50;;;;;;5051485;28;20025;-75
2021/04/22 12:04:46;;;;;;;6.68;4.00;;;20.40;46.10;;;;;;5052242;28;20100;-74
2021/04/22 12:07:17;;;;;;;5.28;4.30;;;20.40;48.40;;;;;;5051053;28;20049;-75
2021/04/22 12:09:43;;;;;;;;;;;20.40;49.00;;;;;;5052439;28;20056;-75
2021/04/22 12:12:24;;;;;;;4.40;3.70;;;20.60;49.10;;;;;;5053023;28;19927;-76
2021/04/22 12:14:58;;;;;;;7.15;3.88;;;20.80;45.90;;;;;;5051884;28;20036;-74
2021/04/22 12:17:29;;;;;;;5.40;4.10;;;20.90;45.60;;;;;;5051022;28;20037;-74
2021/04/22 12:20:07;;;;;;;4.82;4.05;;;20.90;45.20;;;;;;5051564;28;20025;-74
2021/04/22 12:22:38;;;;;;;5.28;3.92;;;20.90;45.10;;;;;;5052418;28;20056;-74
2021/04/22 12:25:27;;;;;;;4.38;3.78;;;20.70;45.10;;;;;;5051205;28;20437;-75
2021/04/22 12:28:02;;;;;;;4.72;4.20;;;20.50;46.00;;;;;;5051485;28;20017;-74
2021/04/22 12:30:40;;;;;;;6.15;4.97;;;20.40;46.20;;;;;;5052185;28;20447;-75
2021/04/22 12:33:11;;;;;;;5.40;4.30;;;20.20;46.20;;;;;;5052210;28;20029;-76
2021/04/22 12:35:40;;;;;;;4.22;3.83;;;19.90;46.60;;;;;;5052124;28;20024;-75
2021/04/22 12:38:25;;;;;;;5.32;3.30;;;19.70;45.90;;;;;;5053144;28;20028;-75
2021/04/22 12:41:04;;;;;;;5.05;3.70;;;19.50;45.80;;;;;;5052216;28;20032;-75
2021/04/22 12:43:33;;;;;;;5.20;4.70;;;19.30;47.10;;;;;;5052061;28;20028;-75